Thunderstorms From: 15-12-2017 06:00 Until: 16-12-2017 06:00 warning for: Thunderstorms Level: Yellow info button

Although rather usual in this region, locally or potentially dangerous phenomena are expected. (such as local winds, summer thunderstorms, rising streams or high waves) Be aware and pay attention to the latest weather updates, especially if you carry out activities exposed to weather or close to a stream or shoreline. 


Meteo18 Weather Cam more information Meteo18 Weather Cam


warning for Thunderstorms more information blitzortung!


Rain radar more information rain snow radar


Visit our other weather sites:

Template documentation
and downloads

And another site



Weather Underground History page Text

Daily Summary for May 5, 2017 Units:  English    Metric   Both
« Previous Day
Next Day »
Daily Weekly Monthly Yearly Custom
  High: Low: Average:
Temperature: 69.1 °F 40.8 °F 55.4 °F
Dew Point: 52.5 °F 39.6 °F 45.5 °F
Humidity: 96 % 46 % 72 %
Wind Speed: 12 mph 0 mph 3 mph
Wind Gust: 17 mph - -
Wind:- - East
Pressure: 30.1 in 29.8 in -
Precipitation: 0 in    
Historical Graphs
 
 
Tabular Data for May 5, 2017
Time Temperature Dew Point Pressure Wind Wind Speed Wind Gust Humidity Rainfall Rate (Hourly)
00:02 47.5 °F 44.8 °F 30.1 in Calm   1 mph 90 % 0 in
00:07 46.9 °F 43.9 °F 30.1 in Calm   1 mph 89 % 0 in
00:12 46.2 °F 43.2 °F 30.1 in Calm   1 mph 89 % 0 in
00:17 46 °F 43.5 °F 30.1 in Calm     91 % 0 in
00:22 46.2 °F 44.1 °F 30.1 in Calm   1 mph 92 % 0 in
00:32 45.3 °F 43.2 °F 30.1 in West 1 mph 1 mph 92 % 0 in
00:37 45 °F 42.8 °F 30.1 in Calm   1 mph 92 % 0 in
00:42 45.1 °F 43.5 °F 30.1 in Calm   1 mph 94 % 0 in
00:47 45.5 °F 43.5 °F 30.1 in WNW 2 mph 2 mph 93 % 0 in
00:52 45.1 °F 43.2 °F 30.1 in WNW 1 mph 2 mph 93 % 0 in
00:57 45.7 °F 44.1 °F 30.1 in Calm   2 mph 94 % 0 in
01:02 45.5 °F 43.5 °F 30.1 in NW 1 mph 2 mph 93 % 0 in
01:07 45.1 °F 43.2 °F 30.1 in NNW 1 mph 1 mph 93 % 0 in
01:12 44.8 °F 42.6 °F 30.1 in NNW 1 mph 2 mph 92 % 0 in
01:17 44.4 °F 42.4 °F 30.1 in Calm   2 mph 93 % 0 in
01:22 44.4 °F 42.4 °F 30.1 in Calm   2 mph 93 % 0 in
01:27 43.7 °F 41.5 °F 30.1 in North 1 mph 2 mph 92 % 0 in
01:32 43.2 °F 41 °F 30.1 in Calm   2 mph 92 % 0 in
01:37 43.3 °F 41.5 °F 30.1 in Calm   2 mph 93 % 0 in
01:42 43.3 °F 41.5 °F 30.1 in NW 1 mph 2 mph 93 % 0 in
01:47 43.3 °F 41.7 °F 30.1 in WNW 1 mph 2 mph 94 % 0 in
01:52 43.2 °F 41.5 °F 30.1 in WNW 1 mph 2 mph 94 % 0 in
01:57 43.2 °F 41.5 °F 30.1 in Calm   1 mph 94 % 0 in
02:02 43.5 °F 42.3 °F 30.1 in Calm   1 mph 95 % 0 in
02:12 44.2 °F 43 °F 30.1 in Calm     95 % 0 in
02:17 44.1 °F 42.4 °F 30.1 in North 1 mph 2 mph 94 % 0 in
02:22 44.1 °F 42.4 °F 30.1 in North 1 mph 2 mph 94 % 0 in
02:27 44.1 °F 42.4 °F 30.1 in NNE 1 mph 2 mph 94 % 0 in
02:32 43.9 °F 42.3 °F 30.1 in Calm   2 mph 94 % 0 in
02:37 43.7 °F 42.1 °F 30.1 in Calm   2 mph 94 % 0 in
02:42 43.5 °F 41.9 °F 30.1 in Calm   2 mph 94 % 0 in
02:47 43.2 °F 41.4 °F 30.1 in Calm   1 mph 93 % 0 in
02:52 43.3 °F 42.1 °F 30.1 in Calm   1 mph 95 % 0 in
02:57 43.3 °F 42.1 °F 30.1 in Calm   1 mph 95 % 0 in
03:02 43.3 °F 41.7 °F 30.1 in Calm   1 mph 94 % 0 in
03:07 43.3 °F 41.7 °F 30.1 in Calm   1 mph 94 % 0 in
03:12 43.5 °F 42.3 °F 30.1 in NNW 1 mph   95 % 0 in
03:22 43.5 °F 41.9 °F 30.1 in Calm   1 mph 94 % 0 in
03:27 43.3 °F 42.1 °F 30.1 in Calm   1 mph 95 % 0 in
03:32 43.2 °F 41.5 °F 30.1 in Calm     94 % 0 in
03:37 42.6 °F 41 °F 30.1 in Calm     94 % 0 in
03:42 42.4 °F 40.8 °F 30.1 in Calm     94 % 0 in
03:47 42.6 °F 41.4 °F 30.1 in Calm     95 % 0 in
03:52 42.6 °F 41.4 °F 30.1 in Calm     95 % 0 in
03:57 42.3 °F 40.6 °F 30.1 in Calm     94 % 0 in
04:02 42.4 °F 41.2 °F 30.1 in NNW 1 mph   95 % 0 in
04:07 42.3 °F 41 °F 30.1 in North 1 mph 2 mph 95 % 0 in
04:12 42.6 °F 41.5 °F 30.1 in North 1 mph 2 mph 96 % 0 in
04:17 43.2 °F 42.1 °F 30.1 in Calm   2 mph 96 % 0 in
04:22 43 °F 41.7 °F 30.1 in Calm   1 mph 95 % 0 in
04:27 42.4 °F 40.8 °F 30.1 in Calm   1 mph 94 % 0 in
04:32 42.3 °F 41 °F 30.1 in Calm     95 % 0 in
04:37 42.3 °F 41 °F 30.1 in Calm     95 % 0 in
04:42 42.4 °F 41.2 °F 30.1 in Calm     95 % 0 in
04:47 42.6 °F 41.4 °F 30.1 in Calm     95 % 0 in
04:52 42.8 °F 41.5 °F 30.1 in Calm     95 % 0 in
04:57 42.4 °F 40.8 °F 30.1 in Calm     94 % 0 in
05:02 41.7 °F 40.1 °F 30.1 in Calm     94 % 0 in
05:12 41.7 °F 40.5 °F 30.1 in Calm     95 % 0 in
05:17 41.5 °F 39.9 °F 30.1 in Calm     94 % 0 in
05:22 41.7 °F 40.5 °F 30.1 in Calm     95 % 0 in
05:32 41.4 °F 40.1 °F 30.1 in Calm     95 % 0 in
05:37 41.5 °F 40.5 °F 30.1 in Calm   1 mph 96 % 0 in
05:42 41.5 °F 40.3 °F 30.1 in North 1 mph 1 mph 95 % 0 in
05:47 41.4 °F 40.1 °F 30.1 in NNW 1 mph 2 mph 95 % 0 in
05:52 41.2 °F 39.9 °F 30.1 in Calm   2 mph 95 % 0 in
05:57 40.8 °F 39.6 °F 30.1 in Calm   2 mph 95 % 0 in
06:02 41.2 °F 40.1 °F 30.1 in Calm   1 mph 96 % 0 in
06:12 41.2 °F 40.1 °F 30.1 in Calm   1 mph 96 % 0 in
06:17 41.2 °F 40.1 °F 30.1 in Calm   1 mph 96 % 0 in
06:22 41.4 °F 40.3 °F 30.1 in Calm   1 mph 96 % 0 in
06:32 41.2 °F 40.1 °F 30.1 in North 1 mph 1 mph 96 % 0 in
06:37 41.2 °F 40.1 °F 30.1 in Calm   1 mph 96 % 0 in
06:42 41.4 °F 40.3 °F 30.1 in Calm   1 mph 96 % 0 in
06:47 41.5 °F 40.5 °F 30.1 in Calm   1 mph 96 % 0 in
06:52 41.7 °F 40.5 °F 30.1 in NNW 1 mph 1 mph 95 % 0 in
07:02 42.3 °F 41 °F 30.1 in Calm   2 mph 95 % 0 in
07:12 42.6 °F 41.4 °F 30.1 in Calm   1 mph 95 % 0 in
07:17 42.8 °F 41.5 °F 30.1 in North 1 mph   95 % 0 in
07:22 42.8 °F 41.2 °F 30.1 in Calm   1 mph 94 % 0 in
07:32 42.8 °F 41.5 °F 30.1 in NE 2 mph 3 mph 95 % 0 in
07:37 43.3 °F 42.1 °F 30.1 in NE 2 mph 4 mph 95 % 0 in
07:42 43.5 °F 41.9 °F 30.1 in NNE 2 mph 4 mph 94 % 0 in
07:47 44.1 °F 42.4 °F 30.1 in NNW 2 mph 4 mph 94 % 0 in
07:52 44.2 °F 42.6 °F 30.1 in NE 3 mph 4 mph 94 % 0 in
07:57 44.8 °F 43.2 °F 30.1 in NE 3 mph 4 mph 94 % 0 in
08:02 45.1 °F 43.2 °F 30.1 in NE 4 mph 5 mph 93 % 0 in
08:12 46 °F 44.1 °F 30.1 in NE 4 mph 7 mph 93 % 0 in
08:17 46.6 °F 44.4 °F 30.1 in NNE 4 mph 7 mph 92 % 0 in
08:22 46.9 °F 44.4 °F 30.1 in North 2 mph 6 mph 91 % 0 in
08:32 47.8 °F 45 °F 30.1 in Calm   5 mph 90 % 0 in
08:37 48.4 °F 45.5 °F 30.1 in NNE 2 mph 5 mph 90 % 0 in
08:42 49.3 °F 46.4 °F 30.1 in Calm   4 mph 90 % 0 in
08:47 50 °F 47.1 °F 30.1 in Calm   4 mph 90 % 0 in
08:52 50.4 °F 46.6 °F 30.1 in Calm   4 mph 87 % 0 in
08:57 51.1 °F 47.3 °F 30.1 in Calm   4 mph 87 % 0 in
09:02 51.3 °F 46.9 °F 30.1 in East 3 mph 3 mph 85 % 0 in
09:12 51.1 °F 46.4 °F 30.1 in East 1 mph 5 mph 84 % 0 in
09:17 51.3 °F 46.9 °F 30.1 in NE 2 mph 5 mph 85 % 0 in
09:22 51.8 °F 47.5 °F 30.1 in Calm   5 mph 85 % 0 in
09:32 52.3 °F 47.7 °F 30.1 in ENE 2 mph 6 mph 84 % 0 in
09:37 52.9 °F 48.2 °F 30.1 in NE 3 mph 6 mph 84 % 0 in
09:42 53.1 °F 48 °F 30.1 in NE 2 mph 5 mph 83 % 0 in
09:47 53.2 °F 48.2 °F 30.1 in ENE 5 mph 7 mph 83 % 0 in
09:52 53.2 °F 48.6 °F 30.1 in NE 5 mph 8 mph 84 % 0 in
09:57 53.8 °F 48.7 °F 30 in NE 2 mph 8 mph 83 % 0 in
10:02 54.1 °F 48.7 °F 30 in NE 3 mph 8 mph 82 % 0 in
10:07 54.9 °F 49.5 °F 30 in East 3 mph 7 mph 82 % 0 in
10:12 55 °F 49.3 °F 30 in East 5 mph 8 mph 81 % 0 in
10:17 55.2 °F 48.2 °F 30 in ENE 5 mph 9 mph 77 % 0 in
10:22 55.8 °F 49.3 °F 30 in East 4 mph 9 mph 79 % 0 in
10:27 55.9 °F 48.9 °F 30 in ENE 6 mph 9 mph 77 % 0 in
10:32 55.8 °F 48.7 °F 30 in East 3 mph 9 mph 77 % 0 in
10:37 56.1 °F 49.3 °F 30 in East 5 mph 9 mph 78 % 0 in
10:42 56.3 °F 48.6 °F 30 in ENE 2 mph 11 mph 75 % 0 in
10:47 56.8 °F 49.3 °F 30 in NE 6 mph 11 mph 76 % 0 in
10:52 57.4 °F 48.7 °F 30 in East 5 mph 8 mph 73 % 0 in
10:57 57.6 °F 48.9 °F 30 in NE 6 mph 10 mph 73 % 0 in
11:02 57.7 °F 48 °F 30 in ENE 7 mph 11 mph 70 % 0 in
11:12 58.5 °F 48 °F 30 in East 5 mph 11 mph 68 % 0 in
11:17 59 °F 48.4 °F 30 in NE 4 mph 11 mph 68 % 0 in
11:22 59.2 °F 48.2 °F 30 in ENE 4 mph 11 mph 67 % 0 in
11:27 59.4 °F 48.7 °F 30 in ENE 5 mph 11 mph 68 % 0 in
11:32 59.5 °F 48.2 °F 30 in ENE 5 mph 11 mph 66 % 0 in
11:37 59.9 °F 48.6 °F 30 in NE 7 mph 11 mph 66 % 0 in
11:42 60.3 °F 48 °F 30 in NE 5 mph 11 mph 64 % 0 in
11:47 60.3 °F 47.1 °F 30 in ENE 6 mph 12 mph 62 % 0 in
11:52 60.4 °F 48.2 °F 30 in ENE 9 mph 14 mph 64 % 0 in
11:57 60.8 °F 48.6 °F 30 in NE 7 mph 14 mph 64 % 0 in
12:02 60.6 °F 47.1 °F 30 in ENE 5 mph 13 mph 61 % 0 in
12:07 61.2 °F 47.7 °F 30 in East 6 mph 13 mph 61 % 0 in
12:12 61.3 °F 47.8 °F 30 in ENE 9 mph 12 mph 61 % 0 in
12:17 61.2 °F 47.7 °F 30 in East 8 mph 14 mph 61 % 0 in
12:22 61.3 °F 46.4 °F 30 in East 7 mph 15 mph 58 % 0 in
12:27 61.7 °F 45.3 °F 30 in ENE 8 mph 15 mph 55 % 0 in
12:32 61.9 °F 45.5 °F 30 in ENE 12 mph 16 mph 55 % 0 in
12:42 62.4 °F 46.9 °F 30 in East 6 mph 16 mph 57 % 0 in
12:47 62.2 °F 45 °F 30 in ENE 10 mph 15 mph 53 % 0 in
12:52 62.4 °F 46 °F 30 in ENE 3 mph 15 mph 55 % 0 in
12:57 63 °F 45.1 °F 30 in ESE 4 mph 14 mph 52 % 0 in
13:02 63 °F 46 °F 30 in NNE 7 mph 16 mph 54 % 0 in
13:07 63.3 °F 46.9 °F 30 in ENE 6 mph 16 mph 55 % 0 in
13:12 63.1 °F 45.7 °F 30 in ENE 3 mph 16 mph 53 % 0 in
13:17 63.5 °F 45.5 °F 30 in East 8 mph 13 mph 52 % 0 in
13:22 63.7 °F 46.8 °F 30 in ESE 2 mph 15 mph 54 % 0 in
13:32 63.7 °F 46.2 °F 30 in East 6 mph 17 mph 53 % 0 in
13:37 64 °F 48 °F 30 in NE 9 mph 17 mph 56 % 0 in
13:42 64.2 °F 48.2 °F 30 in ENE 10 mph 14 mph 56 % 0 in
13:52 64.6 °F 48 °F 30 in NE 6 mph 14 mph 55 % 0 in
13:57 64.6 °F 47.1 °F 30 in ENE 5 mph 14 mph 53 % 0 in
14:02 64.6 °F 48 °F 30 in East 8 mph 15 mph 55 % 0 in
14:07 65.5 °F 50.4 °F 30 in ENE 2 mph 15 mph 58 % 0 in
14:12 65.1 °F 47.5 °F 30 in East 2 mph 15 mph 53 % 0 in
14:17 65.7 °F 49.5 °F 30 in SSW 3 mph 10 mph 56 % 0 in
14:22 66.4 °F 49.6 °F 30 in East 6 mph 10 mph 55 % 0 in
14:27 66.7 °F 51.4 °F 30 in ESE 3 mph 10 mph 58 % 0 in
14:32 65.8 °F 49.6 °F 30 in East 8 mph 10 mph 56 % 0 in
14:37 65.8 °F 49.6 °F 30 in ENE 8 mph 11 mph 56 % 0 in
14:42 65.8 °F 50.7 °F 30 in ENE 5 mph 11 mph 58 % 0 in
14:47 66.2 °F 50.9 °F 30 in East 3 mph 11 mph 58 % 0 in
14:52 66.4 °F 50.7 °F 30 in SE 4 mph 11 mph 57 % 0 in
15:02 66.9 °F 50.2 °F 30 in East 4 mph 7 mph 55 % 0 in
15:07 66.6 °F 49.8 °F 30 in ENE 9 mph 9 mph 55 % 0 in
15:12 66.6 °F 49.5 °F 30 in ESE 3 mph 12 mph 54 % 0 in
15:17 66.6 °F 49.8 °F 30 in SSE 3 mph 12 mph 55 % 0 in
15:22 66.9 °F 51.6 °F 30 in East 3 mph 12 mph 58 % 0 in
15:27 67.5 °F 50.7 °F 29.9 in NE 4 mph 12 mph 55 % 0 in
15:32 66.9 °F 50.2 °F 29.9 in ENE 2 mph 10 mph 55 % 0 in
15:37 66.9 °F 49.8 °F 29.9 in East 7 mph 9 mph 54 % 0 in
15:42 67.6 °F 52.3 °F 29.9 in NE 4 mph 11 mph 58 % 0 in
15:52 68.9 °F 52.5 °F 29.9 in ESE 3 mph 12 mph 56 % 0 in
15:57 68.5 °F 49.1 °F 29.9 in ESE 4 mph 12 mph 50 % 0 in
16:02 68.4 °F 47.8 °F 29.9 in SE 4 mph 8 mph 48 % 0 in
16:07 68.4 °F 49.5 °F 29.9 in ESE 2 mph 8 mph 51 % 0 in
16:12 68.4 °F 48.4 °F 29.9 in ENE 4 mph 10 mph 49 % 0 in
16:17 67.8 °F 47.5 °F 29.9 in East 6 mph 11 mph 48 % 0 in
16:22 68.4 °F 48.9 °F 29.9 in East 8 mph 12 mph 50 % 0 in
16:27 68.4 °F 47.8 °F 29.9 in ESE 4 mph 14 mph 48 % 0 in
16:32 68 °F 46.9 °F 29.9 in ENE 5 mph 14 mph 47 % 0 in
16:37 68.2 °F 49.3 °F 29.9 in ENE 5 mph 14 mph 51 % 0 in
16:42 68 °F 48.7 °F 29.9 in ENE 3 mph 10 mph 50 % 0 in
16:47 67.3 °F 48.6 °F 29.9 in ENE 6 mph 12 mph 51 % 0 in
16:52 67.1 °F 48.9 °F 29.9 in ENE 6 mph 12 mph 52 % 0 in
16:57 67.3 °F 49.1 °F 29.9 in NE 1 mph 10 mph 52 % 0 in
17:02 67.8 °F 48.6 °F 29.9 in ENE 7 mph 10 mph 50 % 0 in
17:07 67.5 °F 47.7 °F 29.9 in ENE 8 mph 16 mph 49 % 0 in
17:12 67.3 °F 46.9 °F 29.9 in East 12 mph 16 mph 48 % 0 in
17:17 67.5 °F 47.7 °F 29.9 in ENE 6 mph 16 mph 49 % 0 in
17:22 67.5 °F 47.1 °F 29.9 in East 6 mph 14 mph 48 % 0 in
17:27 67.6 °F 47.8 °F 29.9 in ENE 4 mph 14 mph 49 % 0 in
17:32 68 °F 48.7 °F 29.9 in ENE 9 mph 14 mph 50 % 0 in
17:37 68.2 °F 48.4 °F 29.9 in ENE 5 mph 13 mph 49 % 0 in
17:42 68.4 °F 48.4 °F 29.9 in ESE 2 mph 12 mph 49 % 0 in
17:52 69.1 °F 48 °F 29.9 in East 7 mph 12 mph 47 % 0 in
17:57 68.7 °F 47.7 °F 29.9 in ESE 6 mph 12 mph 47 % 0 in
18:02 68.5 °F 48 °F 29.9 in East 5 mph 12 mph 48 % 0 in
18:07 68.4 °F 47.3 °F 29.9 in ENE 9 mph 12 mph 47 % 0 in
18:12 68.2 °F 47.1 °F 29.9 in ENE 4 mph 12 mph 47 % 0 in
18:17 67.8 °F 46.9 °F 29.9 in NE 4 mph 11 mph 47 % 0 in
18:22 67.3 °F 46.9 °F 29.9 in East 7 mph 11 mph 48 % 0 in
18:32 66.7 °F 45.3 °F 29.9 in East 3 mph 11 mph 46 % 0 in
18:42 66.7 °F 46.4 °F 29.9 in ENE 3 mph 8 mph 48 % 0 in
18:47 66.7 °F 45.9 °F 29.9 in ESE 3 mph 7 mph 47 % 0 in
18:52 66.6 °F 47.3 °F 29.9 in SE 2 mph 7 mph 50 % 0 in
18:57 66.4 °F 46.6 °F 29.9 in East 1 mph 6 mph 49 % 0 in
19:02 66.2 °F 47.5 °F 29.9 in ESE 3 mph 5 mph 51 % 0 in
19:07 65.8 °F 47.7 °F 29.9 in East 3 mph 5 mph 52 % 0 in
19:12 65.5 °F 46.9 °F 29.9 in SE 2 mph 4 mph 51 % 0 in
19:22 65.1 °F 46.6 °F 29.9 in East 1 mph 4 mph 51 % 0 in
19:27 64.9 °F 47.5 °F 29.9 in East 2 mph 4 mph 53 % 0 in
19:32 64.9 °F 45.9 °F 29.9 in ENE 2 mph 4 mph 50 % 0 in
19:37 64.9 °F 45.9 °F 29.9 in ENE 2 mph 4 mph 50 % 0 in
19:42 64.8 °F 46.2 °F 29.9 in SE 2 mph 8 mph 51 % 0 in
19:47 64.6 °F 46 °F 29.9 in East 2 mph 8 mph 51 % 0 in
19:52 64.4 °F 46.4 °F 29.9 in ESE 1 mph 6 mph 52 % 0 in
19:57 64 °F 46.6 °F 29.9 in East 3 mph 6 mph 53 % 0 in
20:02 63.9 °F 46.9 °F 29.9 in ESE 2 mph 6 mph 54 % 0 in
20:07 63.7 °F 46.8 °F 29.9 in ENE 2 mph 5 mph 54 % 0 in
20:12 63.5 °F 46.6 °F 29.9 in SE 4 mph 5 mph 54 % 0 in
20:17 63.3 °F 46.4 °F 29.9 in East 3 mph 9 mph 54 % 0 in
20:22 63 °F 46.6 °F 29.9 in ENE 3 mph 9 mph 55 % 0 in
20:27 63 °F 46.6 °F 29.9 in East 2 mph 9 mph 55 % 0 in
20:32 62.8 °F 46.9 °F 29.9 in East 2 mph 5 mph 56 % 0 in
20:37 62.6 °F 46.8 °F 29.8 in East 3 mph 5 mph 56 % 0 in
20:42 62.4 °F 46.6 °F 29.8 in East 3 mph 5 mph 56 % 0 in
20:52 62.1 °F 46.2 °F 29.8 in East 3 mph 6 mph 56 % 0 in
20:57 61.9 °F 46.4 °F 29.8 in ENE 2 mph 6 mph 57 % 0 in
21:02 61.5 °F 46.6 °F 29.8 in ENE 4 mph 5 mph 58 % 0 in
21:07 61.2 °F 46.8 °F 29.8 in East 3 mph 5 mph 59 % 0 in
21:12 61.2 °F 46.8 °F 29.8 in ENE 2 mph 5 mph 59 % 0 in
21:17 61.2 °F 46.2 °F 29.8 in ENE 3 mph 4 mph 58 % 0 in
21:22 61.3 °F 46 °F 29.8 in ENE 5 mph 7 mph 57 % 0 in
21:27 61.2 °F 45.9 °F 29.8 in East 5 mph 8 mph 57 % 0 in
21:32 61.2 °F 45.3 °F 29.8 in ENE 4 mph 8 mph 56 % 0 in
21:37 61.2 °F 44.8 °F 29.8 in East 5 mph 8 mph 55 % 0 in
21:42 61.2 °F 45.3 °F 29.8 in ENE 9 mph 9 mph 56 % 0 in
21:47 61 °F 45.7 °F 29.8 in ENE 6 mph 10 mph 57 % 0 in
21:52 60.1 °F 46.2 °F 29.8 in ENE 6 mph 10 mph 60 % 0 in
21:57 59.4 °F 46.4 °F 29.8 in ENE 6 mph 10 mph 62 % 0 in
22:02 59 °F 46.4 °F 29.8 in ENE 5 mph 9 mph 63 % 0 in
22:07 58.5 °F 46.8 °F 29.8 in ENE 4 mph 8 mph 65 % 0 in
22:12 58.3 °F 46.9 °F 29.8 in ENE 3 mph 8 mph 66 % 0 in
22:17 58.3 °F 46.9 °F 29.8 in ENE 4 mph 6 mph 66 % 0 in
22:22 58.1 °F 47.1 °F 29.8 in ENE 6 mph 6 mph 67 % 0 in
22:27 57.9 °F 46.9 °F 29.8 in ENE 4 mph 6 mph 67 % 0 in
22:32 57.7 °F 46.9 °F 29.8 in ENE 3 mph 6 mph 67 % 0 in
22:37 57.7 °F 46.9 °F 29.8 in NE 3 mph 6 mph 67 % 0 in
22:42 57.7 °F 46.4 °F 29.8 in NE 3 mph 6 mph 66 % 0 in
22:47 57.9 °F 46.2 °F 29.8 in NE 2 mph 6 mph 65 % 0 in
22:52 57.9 °F 46.2 °F 29.8 in NE 2 mph 5 mph 65 % 0 in
22:57 57.6 °F 46.2 °F 29.8 in NE 3 mph 6 mph 66 % 0 in
23:02 57.4 °F 46.6 °F 29.8 in ENE 4 mph 6 mph 67 % 0 in
23:07 57 °F 46.2 °F 29.8 in NE 5 mph 6 mph 67 % 0 in
23:12 56.7 °F 46.2 °F 29.8 in NNE 2 mph 6 mph 68 % 0 in
23:17 56.5 °F 46 °F 29.8 in NE 3 mph 6 mph 68 % 0 in
23:22 56.3 °F 45.9 °F 29.8 in NE 4 mph 6 mph 68 % 0 in
23:27 56.5 °F 45.7 °F 29.8 in NE 6 mph 8 mph 67 % 0 in
23:32 56.7 °F 45.9 °F 29.8 in NE 4 mph 8 mph 67 % 0 in
23:37 56.5 °F 46 °F 29.8 in NE 5 mph 8 mph 68 % 0 in
23:42 56.1 °F 45.7 °F 29.8 in ENE 3 mph 7 mph 68 % 0 in
23:47 55.9 °F 45.9 °F 29.8 in NNE 3 mph 7 mph 69 % 0 in
23:52 55.8 °F 45.7 °F 29.8 in NNE 5 mph 7 mph 69 % 0 in
23:57 55.8 °F 45.7 °F 29.8 in NE 5 mph 7 mph 69 % 0 in
Meteo18
Compliments of Weather Underground - 4 mb

Script developed by  Jim McMurry - jmcmurry@mwt.net Adapted for the template by  Wim van der Kuil - Leuven-Template.eu

You find our weather info also at:

European Weather Network

Weather Underground

Equipment we use:

Weather-station
Davis Vue

Weather-program
Meteohub

Weather-server
Raspberry PI 2 B+

Provider
1 and 1

Davis Vue

Meteohub

Raspberry PI 2 B+

1 and 1